Arthur Brusco — WDC3449 — position and weather

sailwx.info

Track history (hours):
 
Tides and Currents Weather Stations Pressure Air Temp Water Temp Dewpoint Dewpoint Depression Visibility Wind Speed Wind Dir Waves Ship Positions

Arthur Brusco

Owner: Brusco Tug & Barge, Inc, Longview, WA. More information available from US FCC via Universal Licensing System and Coast Guard Vessel Documentation Center.

Last reported at 2016-May-27 08:33 UTC. Time now 2016-May-27 14:18 UTC.
Position N 37°49' W 122°18'.

Length 35 m; draft 3.2 m.

Type: Other ship. MMSI: 271040404.

Date/timePositionNaut miles runAvg speedWind from/ knotsBaromVisibWave heightAir tempDewpointWater temp
2016-May-27 08:33N 37°49' W 122°18'0 0.0
2016-May-27 07:33N 37°49' W 122°18'2 0.3
2016-May-27 01:15N 37°48' W 122°21'0 0.6
2016-May-27 00:33N 37°49' W 122°20'1 1.1
2016-May-26 23:30N 37°49' W 122°19'0 0.0
2016-May-26 21:25N 37°49' W 122°19'0 0.1
2016-May-26 20:33N 37°49' W 122°19'0 0.3
2016-May-26 19:33N 37°49' W 122°19'0 0.0
2016-May-26 18:33N 37°49' W 122°19'0 0.0
2016-May-26 16:33N 37°49' W 122°19'0 0.0
2016-May-26 15:33N 37°49' W 122°19'0 0.0
2016-May-26 14:33N 37°49' W 122°19'0 0.0
2016-May-26 13:33N 37°49' W 122°19'0 0.0
2016-May-26 12:33N 37°49' W 122°19'0 0.0
2016-May-26 11:33N 37°49' W 122°19'0 0.0
2016-May-26 10:33N 37°49' W 122°19'2 2.3
2016-May-26 09:33N 37°50' W 122°21'2 2.0
2016-May-26 08:33N 37°49' W 122°19'2 2.0
2016-May-26 07:33N 37°50' W 122°21'2 2.3
2016-May-26 06:33N 37°49' W 122°19'0 0.0
2016-May-26 05:33N 37°49' W 122°19'0 0.0
2016-May-26 04:33N 37°49' W 122°19'0 0.0
2016-May-26 03:33N 37°49' W 122°19'0 0.0
2016-May-26 02:33N 37°49' W 122°19'0 0.0
2016-May-26 01:33N 37°49' W 122°19'1 1.0
2016-May-26 00:33N 37°49' W 122°20'2 1.7
2016-May-25 23:33N 37°50' W 122°21'0 0.0
2016-May-25 22:33N 37°50' W 122°21'0 0.0
2016-May-25 21:33N 37°50' W 122°21'0 0.0
2016-May-25 20:33N 37°50' W 122°21'0 0.0
2016-May-25 19:33N 37°50' W 122°21'4 3.8
2016-May-25 18:33N 37°49' W 122°26'9 9.0
2016-May-25 17:33N 37°46' W 122°37'13 9.3
2016-May-25 16:08N 37°39' W 122°51'6 9.9
2016-May-25 15:33N 37°36' W 122°57'6 1.2
2016-May-25 10:24N 37°37' W 123°05'19 8.6
2016-May-25 08:12N 37°44' W 122°43'7 8.2
2016-May-25 07:19N 37°47' W 122°34'5 7.0
2016-May-25 06:33N 37°49' W 122°28'6 6.4
2016-May-25 05:33N 37°49' W 122°20'1 1.4
2016-May-25 04:33N 37°49' W 122°19'0 0.0
2016-May-25 03:33N 37°49' W 122°19'0 0.0
2016-May-25 02:33N 37°49' W 122°19'0 0.0
2016-May-25 01:33N 37°49' W 122°19'0 0.0
2016-May-25 00:33N 37°49' W 122°19'0 0.1
2016-May-24 23:33N 37°49' W 122°18'0 0.1
2016-May-24 22:33N 37°49' W 122°19'3 2.9
2016-May-24 21:33N 37°50' W 122°22'8 8.1
2016-May-24 20:33N 37°48' W 122°32'19 9.1
2016-May-24 18:27N 37°38' W 122°52'9 9.9
2016-May-24 17:33N 37°33' W 123°02'6 1.1
2016-May-24 12:28N 37°37' W 123°06'13 6.6
2016-May-24 10:32N 37°41' W 122°51'9 7.2
2016-May-24 09:19N 37°44' W 122°41'6 6.9
2016-May-24 08:25N 37°47' W 122°34'5 5.8
2016-May-24 07:33N 37°49' W 122°28'5 4.8
2016-May-24 06:33N 37°48' W 122°22'3 2.8
2016-May-24 05:33N 37°49' W 122°19'0 0.4
2016-May-24 04:33N 37°49' W 122°18'0 0.0
2016-May-24 03:33N 37°49' W 122°18'0 0.0
2016-May-24 02:33N 37°49' W 122°18'0 0.0
2016-May-24 01:33N 37°49' W 122°18'0 0.0
2016-May-24 00:33N 37°49' W 122°18'0 0.0
2016-May-23 23:33N 37°49' W 122°18'0 0.0
2016-May-23 22:33N 37°49' W 122°18'0 0.0
2016-May-23 21:33N 37°49' W 122°18'0 0.0
2016-May-23 20:33N 37°49' W 122°18'0 0.0
2016-May-23 19:33N 37°49' W 122°18'0 0.0
2016-May-23 18:33N 37°49' W 122°18'0 0.4
2016-May-23 17:33N 37°49' W 122°19'2 1.6
2016-May-23 16:33N 37°48' W 122°20'3 3.3
2016-May-23 15:33N 37°47' W 122°16'2 1.6
2016-May-23 14:33N 37°46' W 122°14'0 0.0
2016-May-23 13:33N 37°46' W 122°14'0 0.0
2016-May-23 12:32N 37°46' W 122°14'0 0.0
2016-May-23 11:33N 37°46' W 122°14'3 2.6
2016-May-23 10:33N 37°48' W 122°17'2 2.0
2016-May-23 09:33N 37°49' W 122°19'3 3.3
2016-May-23 08:33N 37°50' W 122°23'9 8.6
2016-May-23 07:33N 37°47' W 122°34'11 8.8
2016-May-23 06:17N 37°41' W 122°46'7 9.8
2016-May-23 05:33N 37°37' W 122°53'11 9.6
2016-May-23 04:25N 37°33' W 123°06'4 0.8
2016-May-22 23:27N 37°37' W 123°07'6 7.1
2016-May-22 22:33N 37°37' W 122°59'22 6.7
2016-May-22 19:15N 37°47' W 122°34'4 5.2
2016-May-22 18:33N 37°49' W 122°30'5 4.5
2016-May-22 17:33N 37°50' W 122°25'4 4.5
2016-May-22 16:33N 37°49' W 122°19'0 0.3
2016-May-22 15:33N 37°49' W 122°19'0 0.0
2016-May-22 14:33N 37°49' W 122°19'0 0.0
2016-May-22 13:33N 37°49' W 122°19'0 0.0
2016-May-22 12:33N 37°49' W 122°19'0 0.0
2016-May-22 11:33N 37°49' W 122°19'0 0.0
2016-May-22 10:33N 37°49' W 122°19'0 0.0
2016-May-22 09:33N 37°49' W 122°19'0 0.0
2016-May-22 08:33N 37°49' W 122°19'0 0.0
2016-May-22 07:33N 37°49' W 122°19'0 0.0
2016-May-22 06:33N 37°49' W 122°19'0 0.0
2016-May-22 05:33N 37°49' W 122°19'0 0.0
2016-May-22 04:33N 37°49' W 122°19'0 0.0
2016-May-22 03:33N 37°49' W 122°19'2 2.1
2016-May-22 02:33N 37°49' W 122°21'2 1.9
2016-May-22 01:33N 37°49' W 122°19'1 0.6
2016-May-22 00:33N 37°49' W 122°19'0 0.5
2016-May-21 23:33N 37°49' W 122°19'0 0.2
2016-May-21 22:33N 37°49' W 122°19'0 0.0
2016-May-21 21:33N 37°49' W 122°19'0 0.3
2016-May-21 20:33N 37°49' W 122°18'0 0.0
2016-May-21 19:33N 37°49' W 122°18'0 0.0
2016-May-21 18:33N 37°49' W 122°18'0 0.0
2016-May-21 17:33N 37°49' W 122°18'0 0.0
2016-May-21 16:33N 37°49' W 122°18'0 0.0
2016-May-21 15:33N 37°49' W 122°18'0 0.0
2016-May-21 14:33N 37°49' W 122°18'3 2.6
2016-May-21 13:33N 37°50' W 122°22'5 5.4
2016-May-21 12:33N 37°49' W 122°28'5 4.6
2016-May-21 11:33N 37°47' W 122°34'14 5.9
2016-May-21 09:09N 37°40' W 122°49'5 8.1
2016-May-21 08:31N 37°37' W 122°54'8 8.1
2016-May-21 07:31N 37°33' W 123°03'7 1.3
2016-May-21 02:31N 37°37' W 123°09'7 6.8
2016-May-21 01:29N 37°36' W 123°01'20 6.8
2016-May-20 22:29N 37°46' W 122°38'6 6.6
2016-May-20 21:33N 37°48' W 122°31'7 6.5
2016-May-20 20:33N 37°49' W 122°23'3 3.2
2016-May-20 19:32N 37°49' W 122°19'0 0.0
2016-May-20 18:33N 37°49' W 122°19'0 0.0
2016-May-20 17:33N 37°49' W 122°19'0 0.0
2016-May-20 16:33N 37°49' W 122°19'0 0.0
2016-May-20 15:33N 37°49' W 122°19'0 0.0
2016-May-20 14:33N 37°49' W 122°19'0 0.0
2016-May-20 13:33N 37°49' W 122°19'0 0.1
2016-May-20 12:33N 37°49' W 122°19'0 0.0
2016-May-20 11:33N 37°49' W 122°19'0 0.0
2016-May-20 10:33N 37°49' W 122°19'0 0.0
2016-May-20 09:33N 37°49' W 122°19'0 0.0
2016-May-20 08:33N 37°49' W 122°19'0 0.0
2016-May-20 07:33N 37°49' W 122°19'0 0.0
2016-May-20 06:33N 37°49' W 122°19'0 0.0
2016-May-20 05:33N 37°49' W 122°19'0 0.0
2016-May-20 04:33N 37°49' W 122°19'0 0.0
2016-May-20 03:33N 37°49' W 122°19'0 0.0
2016-May-20 02:33N 37°49' W 122°19'0 0.0
2016-May-20 01:33N 37°49' W 122°19'0 0.0
2016-May-20 00:33N 37°49' W 122°19'0 0.0
2016-May-19 23:33N 37°49' W 122°19'0 0.0
2016-May-19 21:33N 37°49' W 122°19'0 0.0
2016-May-19 20:33N 37°49' W 122°19'0 0.0
2016-May-19 19:33N 37°49' W 122°19'0 0.0
2016-May-19 18:33N 37°49' W 122°19'0 0.0
2016-May-19 17:33N 37°49' W 122°19'0 0.3
2016-May-19 16:33N 37°49' W 122°19'0 0.3
2016-May-19 15:33N 37°49' W 122°19'0 0.0
2016-May-19 14:33N 37°49' W 122°19'0 0.0
2016-May-19 13:33N 37°49' W 122°19'0 0.0
2016-May-19 12:33N 37°49' W 122°19'0 0.0
2016-May-19 11:33N 37°49' W 122°19'0 0.0
2016-May-19 10:33N 37°49' W 122°19'0 0.0
2016-May-19 09:33N 37°49' W 122°19'0 0.0
2016-May-19 08:33N 37°49' W 122°19'0 0.0
2016-May-19 07:33N 37°49' W 122°19'0 0.0
2016-May-19 06:33N 37°49' W 122°19'0 0.0
2016-May-19 05:33N 37°49' W 122°19'0 0.4
2016-May-19 04:33N 37°49' W 122°19'2 2.0
2016-May-19 03:33N 37°50' W 122°21'0 0.0
2016-May-19 02:33N 37°50' W 122°21'0 0.0
2016-May-19 01:33N 37°50' W 122°21'0 0.0
2016-May-19 00:33N 37°50' W 122°21'0 0.0
2016-May-18 23:33N 37°50' W 122°21'0 0.0
2016-May-18 22:33N 37°50' W 122°21'0 0.0
2016-May-18 21:33N 37°50' W 122°21'0 0.0
2016-May-18 20:33N 37°50' W 122°21'0 0.0
2016-May-18 19:33N 37°50' W 122°21'0 0.0
2016-May-18 18:33N 37°50' W 122°21'0 0.0
2016-May-18 17:33N 37°50' W 122°21'0 0.0
2016-May-18 16:33N 37°50' W 122°21'0 0.0
2016-May-18 15:33N 37°50' W 122°21'0 0.0
2016-May-18 14:33N 37°50' W 122°21'0 0.0
2016-May-18 13:33N 37°50' W 122°21'1 0.9
2016-May-18 12:33N 37°50' W 122°22'5 5.0
2016-May-18 11:33N 37°49' W 122°28'4 4.2
2016-May-18 10:33N 37°47' W 122°33'5 4.5
2016-May-18 09:31N 37°46' W 122°39'6 6.2
2016-May-18 08:32N 37°42' W 122°45'8 7.9
2016-May-18 07:33N 37°38' W 122°53'8 7.6
2016-May-18 06:33N 37°34' W 123°01'7 6.8
2016-May-18 05:33N 37°34' W 123°10'8 7.8
2016-May-18 04:33N 37°36' W 123°19'8 8.2
2016-May-18 03:34N 37°39' W 123°29'5 5.4
2016-May-18 02:33N 37°38' W 123°22'6 6.3
2016-May-18 01:33N 37°38' W 123°14'7 6.6
2016-May-18 00:34N 37°37' W 123°06'7 6.5
2016-May-17 23:31N 37°38' W 122°58'7 7.3
2016-May-17 22:33N 37°41' W 122°50'7 6.8
2016-May-17 21:31N 37°44' W 122°42'7 7.2
2016-May-17 20:31N 37°47' W 122°33'8 8.4
2016-May-17 19:33N 37°49' W 122°23'3 2.8
2016-May-17 18:33N 37°49' W 122°20'6 5.9
2016-May-17 17:33N 37°54' W 122°22'1 0.5
2016-May-17 16:33N 37°55' W 122°22'0 0.0
2016-May-17 15:33N 37°55' W 122°22'0 0.0
2016-May-17 14:33N 37°55' W 122°22'0 0.0
2016-May-17 13:33N 37°55' W 122°22'4 4.4
2016-May-17 12:33N 37°51' W 122°23'1 1.5
2016-May-17 11:33N 37°50' W 122°21'0 0.0
2016-May-17 10:33N 37°50' W 122°21'0 0.0
2016-May-17 09:33N 37°50' W 122°21'0 0.2
2016-May-17 08:33N 37°50' W 122°21'  
Track history (hours):
 
Tides and Currents Weather Stations Pressure Air Temp Water Temp Dewpoint Dewpoint Depression Visibility Wind Speed Wind Dir Waves Ship Positions

Arthur Brusco

Owner: Brusco Tug & Barge, Inc, Longview, WA. More information available from US FCC via Universal Licensing System and Coast Guard Vessel Documentation Center.

Last reported at 2016-May-27 08:33 UTC. Time now 2016-May-27 14:18 UTC.
Position N 37°49' W 122°18'.

Length 35 m; draft 3.2 m.

Type: Other ship. MMSI: 271040404.

Date/timePositionNaut miles runAvg speedWind from/ knotsBaromVisibWave heightAir tempDewpointWater temp
2016-May-27 08:33N 37°49' W 122°18'0 0.0
2016-May-27 07:33N 37°49' W 122°18'2 0.3
2016-May-27 01:15N 37°48' W 122°21'0 0.6
2016-May-27 00:33N 37°49' W 122°20'1 1.1
2016-May-26 23:30N 37°49' W 122°19'0 0.0
2016-May-26 21:25N 37°49' W 122°19'0 0.1
2016-May-26 20:33N 37°49' W 122°19'0 0.3
2016-May-26 19:33N 37°49' W 122°19'0 0.0
2016-May-26 18:33N 37°49' W 122°19'0 0.0
2016-May-26 16:33N 37°49' W 122°19'0 0.0
2016-May-26 15:33N 37°49' W 122°19'0 0.0
2016-May-26 14:33N 37°49' W 122°19'0 0.0
2016-May-26 13:33N 37°49' W 122°19'0 0.0
2016-May-26 12:33N 37°49' W 122°19'0 0.0
2016-May-26 11:33N 37°49' W 122°19'0 0.0
2016-May-26 10:33N 37°49' W 122°19'2 2.3
2016-May-26 09:33N 37°50' W 122°21'2 2.0
2016-May-26 08:33N 37°49' W 122°19'2 2.0
2016-May-26 07:33N 37°50' W 122°21'2 2.3
2016-May-26 06:33N 37°49' W 122°19'0 0.0
2016-May-26 05:33N 37°49' W 122°19'0 0.0
2016-May-26 04:33N 37°49' W 122°19'0 0.0
2016-May-26 03:33N 37°49' W 122°19'0 0.0
2016-May-26 02:33N 37°49' W 122°19'0 0.0
2016-May-26 01:33N 37°49' W 122°19'1 1.0
2016-May-26 00:33N 37°49' W 122°20'2 1.7
2016-May-25 23:33N 37°50' W 122°21'0 0.0
2016-May-25 22:33N 37°50' W 122°21'0 0.0
2016-May-25 21:33N 37°50' W 122°21'0 0.0
2016-May-25 20:33N 37°50' W 122°21'0 0.0
2016-May-25 19:33N 37°50' W 122°21'4 3.8
2016-May-25 18:33N 37°49' W 122°26'9 9.0
2016-May-25 17:33N 37°46' W 122°37'13 9.3
2016-May-25 16:08N 37°39' W 122°51'6 9.9
2016-May-25 15:33N 37°36' W 122°57'6 1.2
2016-May-25 10:24N 37°37' W 123°05'19 8.6
2016-May-25 08:12N 37°44' W 122°43'7 8.2
2016-May-25 07:19N 37°47' W 122°34'5 7.0
2016-May-25 06:33N 37°49' W 122°28'6 6.4
2016-May-25 05:33N 37°49' W 122°20'1 1.4
2016-May-25 04:33N 37°49' W 122°19'0 0.0
2016-May-25 03:33N 37°49' W 122°19'0 0.0
2016-May-25 02:33N 37°49' W 122°19'0 0.0
2016-May-25 01:33N 37°49' W 122°19'0 0.0
2016-May-25 00:33N 37°49' W 122°19'0 0.1
2016-May-24 23:33N 37°49' W 122°18'0 0.1
2016-May-24 22:33N 37°49' W 122°19'3 2.9
2016-May-24 21:33N 37°50' W 122°22'8 8.1
2016-May-24 20:33N 37°48' W 122°32'19 9.1
2016-May-24 18:27N 37°38' W 122°52'9 9.9
2016-May-24 17:33N 37°33' W 123°02'6 1.1
2016-May-24 12:28N 37°37' W 123°06'13 6.6
2016-May-24 10:32N 37°41' W 122°51'9 7.2
2016-May-24 09:19N 37°44' W 122°41'6 6.9
2016-May-24 08:25N 37°47' W 122°34'5 5.8
2016-May-24 07:33N 37°49' W 122°28'5 4.8
2016-May-24 06:33N 37°48' W 122°22'3 2.8
2016-May-24 05:33N 37°49' W 122°19'0 0.4
2016-May-24 04:33N 37°49' W 122°18'0 0.0
2016-May-24 03:33N 37°49' W 122°18'0 0.0
2016-May-24 02:33N 37°49' W 122°18'0 0.0
2016-May-24 01:33N 37°49' W 122°18'0 0.0
2016-May-24 00:33N 37°49' W 122°18'0 0.0
2016-May-23 23:33N 37°49' W 122°18'0 0.0
2016-May-23 22:33N 37°49' W 122°18'0 0.0
2016-May-23 21:33N 37°49' W 122°18'0 0.0
2016-May-23 20:33N 37°49' W 122°18'0 0.0
2016-May-23 19:33N 37°49' W 122°18'0 0.0
2016-May-23 18:33N 37°49' W 122°18'0 0.4
2016-May-23 17:33N 37°49' W 122°19'2 1.6
2016-May-23 16:33N 37°48' W 122°20'3 3.3
2016-May-23 15:33N 37°47' W 122°16'2 1.6
2016-May-23 14:33N 37°46' W 122°14'0 0.0
2016-May-23 13:33N 37°46' W 122°14'0 0.0
2016-May-23 12:32N 37°46' W 122°14'0 0.0
2016-May-23 11:33N 37°46' W 122°14'3 2.6
2016-May-23 10:33N 37°48' W 122°17'2 2.0
2016-May-23 09:33N 37°49' W 122°19'3 3.3
2016-May-23 08:33N 37°50' W 122°23'9 8.6
2016-May-23 07:33N 37°47' W 122°34'11 8.8
2016-May-23 06:17N 37°41' W 122°46'7 9.8
2016-May-23 05:33N 37°37' W 122°53'11 9.6
2016-May-23 04:25N 37°33' W 123°06'4 0.8
2016-May-22 23:27N 37°37' W 123°07'6 7.1
2016-May-22 22:33N 37°37' W 122°59'22 6.7
2016-May-22 19:15N 37°47' W 122°34'4 5.2
2016-May-22 18:33N 37°49' W 122°30'5 4.5
2016-May-22 17:33N 37°50' W 122°25'4 4.5
2016-May-22 16:33N 37°49' W 122°19'0 0.3
2016-May-22 15:33N 37°49' W 122°19'0 0.0
2016-May-22 14:33N 37°49' W 122°19'0 0.0
2016-May-22 13:33N 37°49' W 122°19'0 0.0
2016-May-22 12:33N 37°49' W 122°19'0 0.0
2016-May-22 11:33N 37°49' W 122°19'0 0.0
2016-May-22 10:33N 37°49' W 122°19'0 0.0
2016-May-22 09:33N 37°49' W 122°19'0 0.0
2016-May-22 08:33N 37°49' W 122°19'0 0.0
2016-May-22 07:33N 37°49' W 122°19'0 0.0
2016-May-22 06:33N 37°49' W 122°19'0 0.0
2016-May-22 05:33N 37°49' W 122°19'0 0.0
2016-May-22 04:33N 37°49' W 122°19'0 0.0
2016-May-22 03:33N 37°49' W 122°19'2 2.1
2016-May-22 02:33N 37°49' W 122°21'2 1.9
2016-May-22 01:33N 37°49' W 122°19'1 0.6
2016-May-22 00:33N 37°49' W 122°19'0 0.5
2016-May-21 23:33N 37°49' W 122°19'0 0.2
2016-May-21 22:33N 37°49' W 122°19'0 0.0
2016-May-21 21:33N 37°49' W 122°19'0 0.3
2016-May-21 20:33N 37°49' W 122°18'0 0.0
2016-May-21 19:33N 37°49' W 122°18'0 0.0
2016-May-21 18:33N 37°49' W 122°18'0 0.0
2016-May-21 17:33N 37°49' W 122°18'0 0.0
2016-May-21 16:33N 37°49' W 122°18'0 0.0
2016-May-21 15:33N 37°49' W 122°18'0 0.0
2016-May-21 14:33N 37°49' W 122°18'3 2.6
2016-May-21 13:33N 37°50' W 122°22'5 5.4
2016-May-21 12:33N 37°49' W 122°28'5 4.6
2016-May-21 11:33N 37°47' W 122°34'14 5.9
2016-May-21 09:09N 37°40' W 122°49'5 8.1
2016-May-21 08:31N 37°37' W 122°54'8 8.1
2016-May-21 07:31N 37°33' W 123°03'7 1.3
2016-May-21 02:31N 37°37' W 123°09'7 6.8
2016-May-21 01:29N 37°36' W 123°01'20 6.8
2016-May-20 22:29N 37°46' W 122°38'6 6.6
2016-May-20 21:33N 37°48' W 122°31'7 6.5
2016-May-20 20:33N 37°49' W 122°23'3 3.2
2016-May-20 19:32N 37°49' W 122°19'0 0.0
2016-May-20 18:33N 37°49' W 122°19'0 0.0
2016-May-20 17:33N 37°49' W 122°19'0 0.0
2016-May-20 16:33N 37°49' W 122°19'0 0.0
2016-May-20 15:33N 37°49' W 122°19'0 0.0
2016-May-20 14:33N 37°49' W 122°19'0 0.0
2016-May-20 13:33N 37°49' W 122°19'0 0.1
2016-May-20 12:33N 37°49' W 122°19'0 0.0
2016-May-20 11:33N 37°49' W 122°19'0 0.0
2016-May-20 10:33N 37°49' W 122°19'0 0.0
2016-May-20 09:33N 37°49' W 122°19'0 0.0
2016-May-20 08:33N 37°49' W 122°19'0 0.0
2016-May-20 07:33N 37°49' W 122°19'0 0.0
2016-May-20 06:33N 37°49' W 122°19'0 0.0
2016-May-20 05:33N 37°49' W 122°19'0 0.0
2016-May-20 04:33N 37°49' W 122°19'0 0.0
2016-May-20 03:33N 37°49' W 122°19'0 0.0
2016-May-20 02:33N 37°49' W 122°19'0 0.0
2016-May-20 01:33N 37°49' W 122°19'0 0.0
2016-May-20 00:33N 37°49' W 122°19'0 0.0
2016-May-19 23:33N 37°49' W 122°19'0 0.0
2016-May-19 21:33N 37°49' W 122°19'0 0.0
2016-May-19 20:33N 37°49' W 122°19'0 0.0
2016-May-19 19:33N 37°49' W 122°19'0 0.0
2016-May-19 18:33N 37°49' W 122°19'0 0.0
2016-May-19 17:33N 37°49' W 122°19'0 0.3
2016-May-19 16:33N 37°49' W 122°19'0 0.3
2016-May-19 15:33N 37°49' W 122°19'0 0.0
2016-May-19 14:33N 37°49' W 122°19'0 0.0
2016-May-19 13:33N 37°49' W 122°19'0 0.0
2016-May-19 12:33N 37°49' W 122°19'0 0.0
2016-May-19 11:33N 37°49' W 122°19'0 0.0
2016-May-19 10:33N 37°49' W 122°19'0 0.0
2016-May-19 09:33N 37°49' W 122°19'0 0.0
2016-May-19 08:33N 37°49' W 122°19'0 0.0
2016-May-19 07:33N 37°49' W 122°19'0 0.0
2016-May-19 06:33N 37°49' W 122°19'0 0.0
2016-May-19 05:33N 37°49' W 122°19'0 0.4
2016-May-19 04:33N 37°49' W 122°19'2 2.0
2016-May-19 03:33N 37°50' W 122°21'0 0.0
2016-May-19 02:33N 37°50' W 122°21'0 0.0
2016-May-19 01:33N 37°50' W 122°21'0 0.0
2016-May-19 00:33N 37°50' W 122°21'0 0.0
2016-May-18 23:33N 37°50' W 122°21'0 0.0
2016-May-18 22:33N 37°50' W 122°21'0 0.0
2016-May-18 21:33N 37°50' W 122°21'0 0.0
2016-May-18 20:33N 37°50' W 122°21'0 0.0
2016-May-18 19:33N 37°50' W 122°21'0 0.0
2016-May-18 18:33N 37°50' W 122°21'0 0.0
2016-May-18 17:33N 37°50' W 122°21'0 0.0
2016-May-18 16:33N 37°50' W 122°21'0 0.0
2016-May-18 15:33N 37°50' W 122°21'0 0.0
2016-May-18 14:33N 37°50' W 122°21'0 0.0
2016-May-18 13:33N 37°50' W 122°21'1 0.9
2016-May-18 12:33N 37°50' W 122°22'5 5.0
2016-May-18 11:33N 37°49' W 122°28'4 4.2
2016-May-18 10:33N 37°47' W 122°33'5 4.5
2016-May-18 09:31N 37°46' W 122°39'6 6.2
2016-May-18 08:32N 37°42' W 122°45'8 7.9
2016-May-18 07:33N 37°38' W 122°53'8 7.6
2016-May-18 06:33N 37°34' W 123°01'7 6.8
2016-May-18 05:33N 37°34' W 123°10'8 7.8
2016-May-18 04:33N 37°36' W 123°19'8 8.2
2016-May-18 03:34N 37°39' W 123°29'5 5.4
2016-May-18 02:33N 37°38' W 123°22'6 6.3
2016-May-18 01:33N 37°38' W 123°14'7 6.6
2016-May-18 00:34N 37°37' W 123°06'7 6.5
2016-May-17 23:31N 37°38' W 122°58'7 7.3
2016-May-17 22:33N 37°41' W 122°50'7 6.8
2016-May-17 21:31N 37°44' W 122°42'7 7.2
2016-May-17 20:31N 37°47' W 122°33'8 8.4
2016-May-17 19:33N 37°49' W 122°23'3 2.8
2016-May-17 18:33N 37°49' W 122°20'6 5.9
2016-May-17 17:33N 37°54' W 122°22'1 0.5
2016-May-17 16:33N 37°55' W 122°22'0 0.0
2016-May-17 15:33N 37°55' W 122°22'0 0.0
2016-May-17 14:33N 37°55' W 122°22'0 0.0
2016-May-17 13:33N 37°55' W 122°22'4 4.4
2016-May-17 12:33N 37°51' W 122°23'1 1.5
2016-May-17 11:33N 37°50' W 122°21'0 0.0
2016-May-17 10:33N 37°50' W 122°21'0 0.0
2016-May-17 09:33N 37°50' W 122°21'0 0.2
2016-May-17 08:33N 37°50' W 122°21'  

Dump ship's entire track history